Time;durP1;ratioP1;P1;durP2;ratioP2;P2;SDS_P1;SDS_P2;PMS_P1;PMS_P2;Temp;Humidity;BMP_temperature;BMP_pressure;BME280_temperature;BME280_humidity;BME280_pressure;Samples;Min_cycle;Max_cycle;Signal;HPM_P1;HPM_P2
2023/01/31 00:00:08;;;;;;;13.25;2.67;;;;;;;8.41;100.00;99756.88;5070194;28;20028;-78
2023/01/31 00:02:34;;;;;;;14.23;3.33;;;;;;;8.44;100.00;99746.09;5070507;28;20049;-78
2023/01/31 00:04:59;;;;;;;21.65;4.25;;;;;;;8.48;100.00;99733.50;5071399;28;20032;-78
2023/01/31 00:07:25;;;;;;;13.10;3.95;;;;;;;8.57;100.00;99721.28;5052666;28;20033;-77
2023/01/31 00:09:50;;;;;;;20.45;4.85;;;;;;;8.48;100.00;99720.44;5070667;28;20120;-78
2023/01/31 00:12:16;;;;;;;18.25;4.70;;;;;;;8.47;100.00;99715.38;5070583;28;20040;-77
2023/01/31 00:14:41;;;;;;;10.55;3.17;;;;;;;8.36;100.00;99701.63;5050817;28;20124;-79
2023/01/31 00:17:07;;;;;;;17.42;3.63;;;;;;;8.37;100.00;99699.84;5070778;28;20059;-79
2023/01/31 00:19:32;;;;;;;17.17;4.30;;;;;;;8.36;100.00;99698.22;5070525;28;20029;-79
2023/01/31 00:21:57;;;;;;;11.82;3.47;;;;;;;8.31;100.00;99696.09;5071241;28;20040;-81
2023/01/31 00:24:23;;;;;;;19.13;5.40;;;;;;;8.21;100.00;99670.09;5071685;28;20040;-81
2023/01/31 00:26:55;;;;;;;11.95;3.97;;;;;;;8.01;100.00;99664.34;5070696;28;20088;-80
2023/01/31 00:29:22;;;;;;;13.35;4.28;;;;;;;8.02;100.00;99660.75;5069565;28;20059;-80
2023/01/31 00:31:48;;;;;;;11.55;3.97;;;;;;;7.71;100.00;99649.13;5071298;28;20059;-81
2023/01/31 00:34:14;;;;;;;11.43;3.60;;;;;;;7.83;100.00;99643.59;5071000;28;20032;-80
2023/01/31 00:36:39;;;;;;;12.05;3.30;;;;;;;7.69;100.00;99653.69;5070838;28;20032;-81
2023/01/31 00:39:06;;;;;;;16.55;3.92;;;;;;;7.75;100.00;99654.84;5070883;28;20324;-80
2023/01/31 00:41:34;;;;;;;13.07;3.70;;;;;;;7.83;100.00;99651.44;5071240;28;20040;-80
2023/01/31 00:44:00;;;;;;;12.35;3.42;;;;;;;7.71;100.00;99641.28;5070627;28;20036;-80
2023/01/31 00:47:02;;;;;;;10.10;3.83;;;;;;;7.69;100.00;99645.03;5068957;28;20039;-80
2023/01/31 00:52:20;;;;;;;16.63;3.50;;;;;;;7.40;100.00;99615.75;5071629;28;20391;-81
2023/01/31 00:54:45;;;;;;;16.55;4.05;;;;;;;7.19;100.00;99613.56;5070124;28;20047;-80
2023/01/31 00:57:10;;;;;;;15.60;2.92;;;;;;;7.38;100.00;99611.66;5071457;28;20040;-80
2023/01/31 00:59:36;;;;;;;15.48;2.88;;;;;;;7.38;100.00;99612.47;5050855;28;20489;-79
2023/01/31 01:02:02;;;;;;;21.90;3.47;;;;;;;7.29;100.00;99609.03;5052483;28;20047;-81
2023/01/31 01:04:27;;;;;;;15.80;3.22;;;;;;;7.34;100.00;99605.13;5069473;28;20123;-80
2023/01/31 01:06:53;;;;;;;18.85;3.72;;;;;;;7.21;100.00;99611.59;5068224;28;20040;-79
2023/01/31 01:09:18;;;;;;;13.48;2.92;;;;;;;7.10;100.00;99593.63;5068614;28;20036;-79
2023/01/31 01:11:44;;;;;;;13.07;3.05;;;;;;;7.21;100.00;99590.72;5069726;28;20041;-80
2023/01/31 01:14:09;;;;;;;9.40;2.63;;;;;;;7.17;100.00;99584.19;5068823;28;20432;-78
2023/01/31 01:16:37;;;;;;;21.83;3.25;;;;;;;7.13;100.00;99573.22;5052554;28;20181;-81
2023/01/31 01:19:04;;;;;;;12.95;2.80;;;;;;;7.13;100.00;99561.97;5070293;28;20059;-83
2023/01/31 01:21:31;;;;;;;14.77;3.30;;;;;;;7.16;100.00;99561.66;5071401;28;20043;-83
2023/01/31 01:23:59;;;;;;;14.60;3.72;;;;;;;7.17;100.00;99568.50;5071182;28;20044;-82
2023/01/31 01:26:27;;;;;;;11.65;3.08;;;;;;;7.23;100.00;99562.66;5070351;28;20040;-81
2023/01/31 01:28:54;;;;;;;10.77;2.40;;;;;;;7.31;100.00;99564.47;5051926;28;20478;-81
2023/01/31 01:31:20;;;;;;;11.38;2.92;;;;;;;7.26;100.00;99562.31;5071028;28;20553;-80
2023/01/31 01:33:48;;;;;;;6.72;2.78;;;;;;;7.46;100.00;99562.03;5051472;28;20043;-79
2023/01/31 01:36:16;;;;;;;12.27;2.30;;;;;;;7.74;100.00;99564.34;5053369;28;20044;-81
2023/01/31 01:38:44;;;;;;;8.23;2.45;;;;;;;7.89;100.00;99551.44;5052143;28;20044;-81
2023/01/31 01:41:10;;;;;;;15.15;4.03;;;;;;;7.94;100.00;99558.81;5071012;28;20103;-82
2023/01/31 01:43:42;;;;;;;11.10;2.17;;;;;;;8.18;100.00;99554.53;5071254;28;20044;-81
2023/01/31 01:46:11;;;;;;;12.35;2.42;;;;;;;7.96;100.00;99557.66;5053135;28;20151;-80
2023/01/31 01:48:37;;;;;;;11.02;2.58;;;;;;;7.98;100.00;99547.03;5070105;28;20402;-80
2023/01/31 01:51:05;;;;;;;9.63;2.72;;;;;;;8.19;100.00;99530.84;5068714;28;20036;-81
2023/01/31 01:53:37;;;;;;;9.20;2.45;;;;;;;8.03;100.00;99534.28;5069532;28;20382;-81
2023/01/31 01:56:07;;;;;;;3.33;1.40;;;;;;;8.21;100.00;99534.09;5069730;28;20044;-81
2023/01/31 01:58:46;;;;;;;14.45;2.00;;;;;;;8.16;100.00;99539.03;5067431;28;20051;-80
2023/01/31 02:01:15;;;;;;;7.80;1.80;;;;;;;7.95;100.00;99524.63;5069868;28;20075;-81
2023/01/31 02:03:43;;;;;;;11.48;2.10;;;;;;;8.11;100.00;99538.69;5069253;28;20048;-80
2023/01/31 02:06:09;;;;;;;9.73;2.50;;;;;;;7.78;100.00;99542.16;5069865;28;20036;-81
2023/01/31 02:08:37;;;;;;;7.22;2.47;;;;;;;7.93;100.00;99537.06;5070873;28;20475;-81
2023/01/31 02:11:11;;;;;;;7.38;2.30;;;;;;;7.86;100.00;99523.03;5070013;28;20040;-81
2023/01/31 02:13:38;;;;;;;;;;;;;;;7.94;100.00;99520.41;5069974;28;20064;-80
2023/01/31 02:16:04;;;;;;;11.93;2.70;;;;;;;7.72;100.00;99519.28;5069967;28;20267;-79
2023/01/31 02:18:29;;;;;;;12.82;2.40;;;;;;;7.94;100.00;99519.59;5049568;28;20048;-80
2023/01/31 02:21:46;;;;;;;10.88;2.55;;;;;;;7.85;100.00;99522.19;5067760;28;20095;-80
2023/01/31 02:24:43;;;;;;;14.52;2.97;;;;;;;8.04;100.00;99520.22;5030881;28;20485;-80
2023/01/31 02:27:39;;;;;;;11.93;2.25;;;;;;;7.88;100.00;99528.09;5072052;28;20041;-79
2023/01/31 02:30:50;;;;;;;13.68;2.35;;;;;;;8.24;100.00;99514.63;5086956;28;20170;-80
2023/01/31 02:33:33;;;;;;;9.70;2.55;;;;;;;8.05;100.00;99521.06;5054747;28;20132;-81
2023/01/31 02:36:16;;;;;;;10.77;2.30;;;;;;;7.99;100.00;99519.91;5055334;28;20028;-80
2023/01/31 02:38:55;;;;;;;10.25;3.33;;;;;;;8.05;100.00;99477.41;5072942;28;20041;-80
2023/01/31 02:41:45;;;;;;;6.85;2.10;;;;;;;8.24;100.00;99512.00;5055538;28;20076;-80
2023/01/31 02:47:57;;;;;;;13.57;2.60;;;;;;;8.34;100.00;99499.56;5068275;28;20033;-81
2023/01/31 02:50:37;;;;;;;8.15;2.58;;;;;;;8.34;100.00;99496.94;5073084;28;20051;-80
2023/01/31 02:53:09;;;;;;;16.27;2.90;;;;;;;8.37;100.00;99475.69;5071866;28;20041;-80
2023/01/31 02:58:32;;;;;;;12.23;2.33;;;;;;;8.25;100.00;99471.78;5070287;28;20123;-80
2023/01/31 03:01:02;;;;;;;10.57;2.42;;;;;;;8.27;100.00;99459.38;5071592;28;20044;-80
2023/01/31 03:03:31;;;;;;;11.48;2.92;;;;;;;8.28;100.00;99477.50;5072431;28;20082;-80
2023/01/31 03:06:24;;;;;;;10.38;3.60;;;;;;;8.33;100.00;99473.56;5071682;28;20036;-79
2023/01/31 03:08:58;;;;;;;11.00;2.80;;;;;;;8.52;100.00;99448.84;5072367;28;20063;-80
2023/01/31 03:11:30;;;;;;;16.65;3.88;;;;;;;8.27;100.00;99439.28;5071140;28;20094;-80
2023/01/31 03:14:19;;;;;;;10.88;3.17;;;;;;;8.04;100.00;99439.16;5072183;28;20071;-79
2023/01/31 03:20:02;;;;;;;11.73;3.25;;;;;;;7.75;100.00;99465.88;5071427;28;20059;-79
2023/01/31 03:22:33;;;;;;;11.57;3.25;;;;;;;7.99;100.00;99449.31;5072606;28;20375;-79
2023/01/31 03:24:59;;;;;;;10.30;3.58;;;;;;;7.81;100.00;99445.13;5069058;28;20489;-79
2023/01/31 03:27:26;;;;;;;11.82;3.20;;;;;;;7.83;100.00;99439.72;5071629;28;20486;-79
2023/01/31 03:29:58;;;;;;;14.88;3.15;;;;;;;8.12;100.00;99435.72;5071525;28;20162;-79
2023/01/31 03:32:29;;;;;;;5.80;2.72;;;;;;;8.24;100.00;99418.69;5054370;28;20044;-80
2023/01/31 03:34:55;;;;;;;15.15;3.05;;;;;;;8.06;100.00;99432.00;5071644;28;20032;-79
2023/01/31 03:37:34;;;;;;;18.10;3.03;;;;;;;8.05;100.00;99414.66;5071295;28;20044;-80
2023/01/31 03:40:15;;;;;;;15.43;3.22;;;;;;;8.15;100.00;99425.75;5063731;28;20111;-79
2023/01/31 03:42:56;;;;;;;19.90;4.00;;;;;;;8.32;100.00;99422.25;5071558;28;20031;-79
2023/01/31 03:45:40;;;;;;;8.02;3.13;;;;;;;8.29;100.00;99420.81;5071731;28;20043;-79
2023/01/31 03:48:13;;;;;;;11.13;2.95;;;;;;;8.00;100.00;99412.56;5053093;28;20632;-79
2023/01/31 03:50:48;;;;;;;19.15;3.08;;;;;;;8.21;100.00;99408.56;5070568;28;20393;-79
2023/01/31 03:53:24;;;;;;;10.02;3.03;;;;;;;8.21;100.00;99419.03;5070699;28;20029;-79
2023/01/31 03:56:22;;;;;;;14.90;3.90;;;;;;;8.42;100.00;99415.81;5071508;28;20047;-79
2023/01/31 03:58:57;;;;;;;12.48;2.70;;;;;;;8.38;100.00;99414.53;5070516;28;20170;-79
2023/01/31 04:01:27;;;;;;;17.38;3.88;;;;;;;8.64;100.00;99413.44;5069162;28;20032;-79
2023/01/31 04:04:06;;;;;;;15.20;2.75;;;;;;;8.62;100.00;99417.25;5071128;28;20048;-79
2023/01/31 04:06:32;;;;;;;8.40;2.58;;;;;;;8.68;100.00;99404.28;5069605;28;20425;-78
2023/01/31 04:09:00;;;;;;;10.95;3.20;;;;;;;8.63;100.00;99411.81;5068010;28;20043;-79
2023/01/31 04:11:27;;;;;;;10.93;2.60;;;;;;;8.60;100.00;99403.50;5071117;28;20045;-79
2023/01/31 04:13:52;;;;;;;14.15;2.50;;;;;;;8.69;100.00;99413.75;5070303;28;20382;-78
2023/01/31 04:16:18;;;;;;;8.57;2.40;;;;;;;8.54;100.00;99407.63;5052721;28;20044;-79
2023/01/31 04:18:43;;;;;;;13.52;4.28;;;;;;;8.58;100.00;99429.84;5070795;28;20049;-78
2023/01/31 04:21:09;;;;;;;17.20;3.10;;;;;;;8.68;100.00;99419.16;5070988;28;20501;-78
2023/01/31 04:23:35;;;;;;;14.23;2.10;;;;;;;8.44;100.00;99419.06;5070510;28;20389;-78
2023/01/31 04:26:00;;;;;;;10.90;2.95;;;;;;;8.61;100.00;99423.47;5071585;28;20462;-78
2023/01/31 04:28:26;;;;;;;7.38;2.08;;;;;;;8.78;100.00;99427.63;5070180;28;20615;-80
2023/01/31 04:30:53;;;;;;;13.00;2.63;;;;;;;8.66;100.00;99432.44;5070098;28;20064;-79
2023/01/31 04:33:19;;;;;;;12.77;2.70;;;;;;;8.62;100.00;99427.72;5068076;28;20054;-79
2023/01/31 04:35:44;;;;;;;10.93;2.50;;;;;;;8.61;100.00;99429.50;5070315;28;20520;-79
2023/01/31 04:38:10;;;;;;;10.95;2.30;;;;;;;8.85;100.00;99425.13;5051822;28;20517;-77
2023/01/31 04:40:35;;;;;;;16.00;2.35;;;;;;;8.97;100.00;99433.38;5070152;28;20066;-77
2023/01/31 04:43:01;;;;;;;11.73;2.50;;;;;;;9.02;100.00;99430.22;5069945;28;20046;-79
2023/01/31 04:45:26;;;;;;;7.45;2.35;;;;;;;9.20;100.00;99427.31;5051632;28;20089;-78
2023/01/31 04:47:52;;;;;;;8.93;2.60;;;;;;;8.78;100.00;99416.31;5050992;28;20106;-78
2023/01/31 04:50:17;;;;;;;9.90;2.40;;;;;;;9.11;100.00;99413.47;5072021;28;20398;-78
2023/01/31 04:52:43;;;;;;;8.23;2.92;;;;;;;9.17;100.00;99412.78;5067166;28;20119;-77
2023/01/31 04:55:08;;;;;;;12.57;4.22;;;;;;;8.90;100.00;99414.94;5071312;28;20123;-78
2023/01/31 04:57:34;;;;;;;12.13;5.00;;;;;;;9.12;100.00;99410.66;5051090;28;20115;-77
2023/01/31 04:59:59;;;;;;;9.95;4.53;;;;;;;9.04;100.00;99394.19;5069381;28;20044;-77
2023/01/31 05:02:25;;;;;;;9.02;3.55;;;;;;;8.93;100.00;99391.03;5070478;28;20040;-80
2023/01/31 05:04:54;;;;;;;11.27;4.53;;;;;;;9.11;100.00;99388.09;5069223;28;20379;-78
2023/01/31 05:07:19;;;;;;;8.85;3.38;;;;;;;9.10;100.00;99375.19;5069893;28;20036;-77
2023/01/31 05:09:45;;;;;;;12.02;5.20;;;;;;;8.84;100.00;99376.34;5070216;28;20055;-81
2023/01/31 05:12:10;;;;;;;11.15;5.82;;;;;;;8.91;100.00;99368.63;5068420;28;20095;-80
2023/01/31 05:14:36;;;;;;;7.97;3.22;;;;;;;9.02;100.00;99373.44;5069920;28;20040;-78
2023/01/31 05:17:01;;;;;;;10.55;4.38;;;;;;;8.82;100.00;99368.69;5064815;28;20556;-78
2023/01/31 05:19:27;;;;;;;9.07;4.22;;;;;;;8.91;100.00;99372.06;5061591;28;20047;-78
2023/01/31 05:21:58;;;;;;;11.75;4.75;;;;;;;8.64;100.00;99387.28;5060921;28;20044;-78
2023/01/31 05:24:26;;;;;;;12.98;6.22;;;;;;;8.80;100.00;99370.66;5057679;28;20036;-78
2023/01/31 05:26:57;;;;;;;15.55;7.03;;;;;;;8.77;100.00;99362.34;5035024;28;20036;-78
2023/01/31 05:29:23;;;;;;;17.08;7.85;;;;;;;8.92;100.00;99365.84;5060736;28;20039;-77
2023/01/31 05:31:53;;;;;;;16.17;7.93;;;;;;;8.88;100.00;99361.13;5059182;28;20119;-78
2023/01/31 05:34:19;;;;;;;22.70;9.70;;;;;;;8.83;100.00;99356.41;5048735;28;20112;-77
2023/01/31 05:36:45;;;;;;;22.45;11.75;;;;;;;8.93;100.00;99364.84;5038528;28;20123;-78
2023/01/31 05:39:11;;;;;;;24.58;12.30;;;;;;;9.21;100.00;99345.94;5058341;28;20032;-78
2023/01/31 05:41:36;;;;;;;26.30;12.80;;;;;;;9.02;100.00;99352.50;5055270;28;20041;-79
2023/01/31 05:44:02;;;;;;;23.15;13.23;;;;;;;9.14;100.00;99347.66;5054590;28;20395;-79
2023/01/31 05:46:28;;;;;;;29.83;11.65;;;;;;;9.04;100.00;99344.44;5026268;28;20033;-79
2023/01/31 05:48:53;;;;;;;23.55;12.55;;;;;;;9.03;100.00;99332.34;5052045;28;20482;-79
2023/01/31 05:51:19;;;;;;;23.92;13.10;;;;;;;9.03;100.00;99327.13;5061313;28;20036;-79
2023/01/31 05:53:45;;;;;;;23.10;11.80;;;;;;;9.06;100.00;99327.59;5039573;28;20040;-78
2023/01/31 05:56:12;;;;;;;21.73;12.52;;;;;;;9.42;100.00;99310.38;5055219;28;20055;-79
2023/01/31 05:58:38;;;;;;;17.58;10.55;;;;;;;9.35;100.00;99299.00;5064174;28;20075;-80
2023/01/31 06:01:03;;;;;;;20.70;10.70;;;;;;;9.20;100.00;99299.78;5044981;28;20107;-80
2023/01/31 06:03:29;;;;;;;21.42;11.90;;;;;;;9.44;100.00;99300.56;5063653;28;20056;-81
2023/01/31 06:05:54;;;;;;;24.60;12.57;;;;;;;9.31;100.00;99329.97;5059700;28;20048;-81
2023/01/31 06:08:20;;;;;;;18.30;9.60;;;;;;;9.03;100.00;99295.69;5060344;28;20029;-80
2023/01/31 06:10:45;;;;;;;14.30;8.38;;;;;;;8.95;100.00;99297.41;5058618;28;20044;-80
2023/01/31 06:13:11;;;;;;;19.67;9.18;;;;;;;8.96;100.00;99299.03;5060168;28;20059;-79
2023/01/31 06:15:41;;;;;;;18.48;9.73;;;;;;;9.07;100.00;99289.13;5064618;28;20032;-79
2023/01/31 06:18:06;;;;;;;13.90;8.93;;;;;;;9.11;100.00;99308.72;5070827;28;20076;-80
2023/01/31 06:20:32;;;;;;;13.90;8.60;;;;;;;8.99;100.00;99345.81;5072950;28;20177;-80
2023/01/31 06:22:59;;;;;;;13.40;8.25;;;;;;;8.92;100.00;99279.44;5076717;28;20043;-80
2023/01/31 06:25:25;;;;;;;14.20;9.20;;;;;;;9.10;100.00;99288.78;5071184;28;20044;-80
2023/01/31 06:27:50;;;;;;;12.82;8.15;;;;;;;8.91;100.00;99288.28;5055202;28;20490;-82
2023/01/31 06:30:16;;;;;;;14.68;8.70;;;;;;;8.76;100.00;99305.75;5054316;28;20111;-80
2023/01/31 06:32:42;;;;;;;16.27;8.73;;;;;;;8.76;100.00;99290.06;5072058;28;20040;-80
2023/01/31 06:35:07;;;;;;;12.88;8.38;;;;;;;8.97;100.00;99269.25;5069898;28;20044;-81
2023/01/31 06:37:33;;;;;;;11.35;8.20;;;;;;;8.97;100.00;99273.69;5072411;28;20108;-80
2023/01/31 06:39:58;;;;;;;9.73;6.38;;;;;;;8.78;100.00;99274.97;5073366;28;20048;-85
2023/01/31 06:42:24;;;;;;;11.82;7.20;;;;;;;8.86;100.00;99274.94;5053870;28;20097;-80
2023/01/31 06:44:49;;;;;;;10.30;6.85;;;;;;;8.89;100.00;99274.56;5054076;28;20040;-79
2023/01/31 06:47:15;;;;;;;12.68;6.20;;;;;;;8.91;100.00;99304.00;5071215;28;20038;-78
2023/01/31 06:49:40;;;;;;;7.50;5.57;;;;;;;8.93;100.00;99270.59;5053709;28;20110;-78
2023/01/31 06:52:06;;;;;;;8.93;5.60;;;;;;;8.93;100.00;99280.25;5070187;28;20036;-77
2023/01/31 06:54:31;;;;;;;6.43;4.78;;;;;;;9.02;100.00;99270.50;5071121;28;20036;-76
2023/01/31 06:56:57;;;;;;;7.50;4.82;;;;;;;8.97;100.00;99266.63;5069956;28;20041;-76
2023/01/31 06:59:22;;;;;;;7.50;4.22;;;;;;;8.79;100.00;99290.53;5071042;28;20394;-77
2023/01/31 07:01:49;;;;;;;5.53;4.43;;;;;;;8.90;100.00;99270.97;5053593;28;20066;-79
2023/01/31 07:04:15;;;;;;;6.03;4.25;;;;;;;8.87;100.00;99271.31;5071497;28;20048;-79
2023/01/31 07:06:40;;;;;;;6.30;4.05;;;;;;;8.95;100.00;99257.34;5071929;28;20032;-78
2023/01/31 07:09:06;;;;;;;4.85;3.80;;;;;;;8.90;100.00;99270.13;5071717;28;20040;-78
2023/01/31 07:11:32;;;;;;;7.15;3.85;;;;;;;9.06;100.00;99266.56;5052694;28;20104;-76
2023/01/31 07:13:57;;;;;;;4.88;3.60;;;;;;;9.17;100.00;99267.94;5072307;28;20463;-77
2023/01/31 07:16:24;;;;;;;4.10;3.40;;;;;;;9.13;100.00;99280.56;5066071;28;21374;-76
2023/01/31 07:18:53;;;;;;;6.85;3.90;;;;;;;9.23;100.00;99270.63;5069560;28;20502;-76
2023/01/31 07:21:18;;;;;;;5.35;3.17;;;;;;;8.93;100.00;99265.34;5071210;28;20064;-77
2023/01/31 07:23:45;;;;;;;3.80;3.05;;;;;;;9.04;100.00;99258.03;5067339;28;20075;-76
2023/01/31 07:26:10;;;;;;;3.55;2.72;;;;;;;9.10;100.00;99245.06;5069816;28;20040;-75
2023/01/31 07:28:36;;;;;;;3.42;2.78;;;;;;;9.07;100.00;99270.81;5070297;28;20166;-76
2023/01/31 07:31:11;;;;;;;3.17;2.70;;;;;;;9.29;100.00;99256.00;5068742;28;20048;-78
2023/01/31 07:33:38;;;;;;;3.78;2.10;;;;;;;8.90;100.00;99265.72;5065484;28;20071;-78
2023/01/31 07:36:05;;;;;;;4.25;2.60;;;;;;;9.25;100.00;99257.34;5048588;28;20078;-77
2023/01/31 07:38:32;;;;;;;3.40;2.40;;;;;;;9.13;100.00;99247.31;5068165;28;20036;-76
2023/01/31 07:41:04;;;;;;;4.80;3.55;;;;;;;9.27;100.00;99240.47;5069269;28;20040;-76
2023/01/31 07:43:31;;;;;;;2.47;1.88;;;;;;;9.08;100.00;99259.34;5065426;28;20098;-77
2023/01/31 07:45:57;;;;;;;3.30;2.63;;;;;;;9.22;100.00;99287.31;5063219;28;20399;-77
2023/01/31 07:48:23;;;;;;;3.05;2.50;;;;;;;9.14;100.00;99303.97;5044521;28;20047;-79
2023/01/31 07:50:51;;;;;;;4.32;2.30;;;;;;;9.04;100.00;99258.03;5068422;28;20040;-75
2023/01/31 07:53:16;;;;;;;3.88;2.03;;;;;;;9.21;100.00;99249.03;5067812;28;20040;-76
2023/01/31 07:55:46;;;;;;;5.43;1.98;;;;;;;9.19;100.00;99250.22;5068254;28;20033;-76
2023/01/31 07:58:13;;;;;;;3.22;2.30;;;;;;;9.16;100.00;99337.00;5065907;28;20044;-75
2023/01/31 08:03:32;;;;;;;5.43;2.20;;;;;;;9.34;100.00;99273.78;5068057;28;20036;-75
2023/01/31 08:06:08;;;;;;;9.00;2.30;;;;;;;9.00;100.00;99270.69;5051622;28;20402;-75
2023/01/31 08:08:34;;;;;;;12.55;3.00;;;;;;;8.75;100.00;99276.16;5052549;28;20477;-77
2023/01/31 08:11:00;;;;;;;18.05;3.47;;;;;;;8.36;100.00;99300.63;5066608;28;20054;-75
2023/01/31 08:13:25;;;;;;;14.73;3.20;;;;;;;8.50;100.00;99283.38;5052096;28;20032;-76
2023/01/31 08:15:52;;;;;;;16.10;3.13;;;;;;;8.42;100.00;99347.81;5070032;28;20371;-75
2023/01/31 08:18:18;;;;;;;13.35;3.20;;;;;;;8.29;100.00;99290.03;5068066;28;20037;-76
2023/01/31 08:20:44;;;;;;;17.02;3.45;;;;;;;8.56;100.00;99314.06;5062255;28;20040;-75
2023/01/31 08:23:09;;;;;;;16.23;3.63;;;;;;;8.44;100.00;99293.50;5050961;28;20060;-76
2023/01/31 08:25:35;;;;;;;15.45;3.80;;;;;;;8.41;100.00;99293.84;5069426;28;20617;-77
2023/01/31 08:28:00;;;;;;;25.38;4.38;;;;;;;8.36;100.00;99311.88;5067879;28;20039;-76
2023/01/31 08:30:26;;;;;;;16.90;3.25;;;;;;;8.53;100.00;99286.44;5069161;28;20072;-75
2023/01/31 08:32:52;;;;;;;21.00;3.85;;;;;;;8.44;100.00;99313.63;5070151;28;20547;-76
2023/01/31 08:35:17;;;;;;;20.30;3.92;;;;;;;8.46;100.00;99301.19;5068221;28;20048;-77
2023/01/31 08:37:43;;;;;;;18.02;3.17;;;;;;;8.53;100.00;99306.56;5066045;28;20082;-77
2023/01/31 08:40:09;;;;;;;25.58;4.38;;;;;;;8.42;100.00;99287.63;5065529;28;20059;-78
2023/01/31 08:42:34;;;;;;;34.08;5.57;;;;;;;8.44;100.00;99324.91;5068798;28;20044;-78
2023/01/31 08:45:00;;;;;;;17.73;4.45;;;;;;;8.36;100.00;99283.13;5051339;28;20041;-78
2023/01/31 08:47:25;;;;;;;22.65;4.85;;;;;;;8.59;100.00;99295.41;5068678;28;20044;-79
2023/01/31 08:49:51;;;;;;;41.35;5.97;;;;;;;8.38;100.00;99264.63;5067373;28;20037;-78
2023/01/31 08:52:16;;;;;;;28.60;4.28;;;;;;;8.52;100.00;99297.91;5068279;28;20032;-77
2023/01/31 08:54:42;;;;;;;24.58;4.25;;;;;;;8.59;100.00;99250.13;5068153;28;20044;-77
2023/01/31 08:57:07;;;;;;;20.65;4.40;;;;;;;8.38;100.00;99247.13;5067349;28;20499;-78
2023/01/31 08:59:33;;;;;;;23.08;5.38;;;;;;;8.43;100.00;99336.34;5050649;28;20040;-78
2023/01/31 09:01:58;;;;;;;22.73;4.35;;;;;;;8.55;100.00;99288.91;5049172;28;20028;-77
2023/01/31 09:04:24;;;;;;;40.90;5.72;;;;;;;8.55;100.00;99278.44;5070563;28;20036;-78
2023/01/31 09:06:49;;;;;;;25.02;4.57;;;;;;;8.43;100.00;99278.00;5070658;28;20043;-78
2023/01/31 09:09:15;;;;;;;18.00;4.47;;;;;;;8.40;100.00;99302.69;5068042;28;20379;-78
2023/01/31 09:11:40;;;;;;;20.58;4.97;;;;;;;8.53;100.00;99344.00;5069571;28;20041;-78
2023/01/31 09:14:05;;;;;;;22.83;5.18;;;;;;;8.59;100.00;99305.88;5070391;28;20048;-78
2023/01/31 09:16:31;;;;;;;26.45;3.95;;;;;;;8.73;100.00;99311.34;5064863;28;20171;-76
2023/01/31 09:18:57;;;;;;;22.48;4.05;;;;;;;8.67;100.00;99313.69;5067640;28;20045;-77
2023/01/31 09:21:23;;;;;;;22.25;4.35;;;;;;;8.56;100.00;99327.16;5062740;28;20167;-78
2023/01/31 09:23:57;;;;;;;16.05;4.40;;;;;;;8.74;100.00;99352.22;5048321;28;20051;-77
2023/01/31 09:26:23;;;;;;;24.08;4.30;;;;;;;8.59;100.00;99316.34;5047770;28;20150;-77
2023/01/31 09:28:49;;;;;;;18.38;4.80;;;;;;;8.66;100.00;99316.47;5068806;28;20163;-78
2023/01/31 09:31:17;;;;;;;21.30;4.55;;;;;;;8.64;100.00;99308.78;5045881;28;20047;-78
2023/01/31 09:33:43;;;;;;;27.85;4.13;;;;;;;8.76;100.00;99311.81;5071225;28;20063;-78
2023/01/31 09:36:20;;;;;;;27.48;4.15;;;;;;;9.00;100.00;99323.88;5068657;28;20060;-78
2023/01/31 09:38:46;;;;;;;19.88;4.18;;;;;;;8.73;100.00;99321.81;5055389;28;20059;-78
2023/01/31 09:41:40;;;;;;;25.83;4.18;;;;;;;8.79;100.00;99321.09;5073034;28;20040;-78
2023/01/31 09:44:10;;;;;;;19.25;3.80;;;;;;;8.70;100.00;99323.78;5059384;28;20123;-78
2023/01/31 09:46:40;;;;;;;19.65;3.92;;;;;;;8.65;100.00;99310.44;5063015;28;20052;-77
2023/01/31 09:49:15;;;;;;;22.67;4.53;;;;;;;8.75;100.00;99315.41;5054844;28;20072;-75
2023/01/31 09:51:41;;;;;;;28.42;4.90;;;;;;;8.60;100.00;99338.91;5051306;28;20044;-76
2023/01/31 09:54:18;;;;;;;26.30;4.82;;;;;;;8.83;100.00;99356.41;5071934;28;20111;-76
2023/01/31 09:57:16;;;;;;;28.77;4.75;;;;;;;8.84;100.00;99334.47;5071011;28;20486;-76
2023/01/31 09:59:49;;;;;;;19.75;3.47;;;;;;;8.80;100.00;99360.19;5066524;28;20072;-76
2023/01/31 10:02:26;;;;;;;23.50;4.05;;;;;;;8.64;100.00;99308.78;5073028;28;20043;-77
2023/01/31 10:05:01;;;;;;;28.08;4.60;;;;;;;8.77;100.00;99370.19;5072459;28;20046;-76
2023/01/31 10:07:39;;;;;;;23.55;4.32;;;;;;;8.77;100.00;99364.97;5073051;28;20033;-76
2023/01/31 10:10:23;;;;;;;24.55;6.47;;;;;;;8.81;100.00;99351.34;5076305;28;20041;-76
2023/01/31 10:12:53;;;;;;;19.75;3.95;;;;;;;8.74;100.00;99349.63;5071924;28;20053;-77
2023/01/31 10:15:31;;;;;;;23.17;4.07;;;;;;;8.56;100.00;99358.56;5072877;28;20036;-76
2023/01/31 10:18:23;;;;;;;19.17;4.53;;;;;;;8.54;100.00;99344.84;5053830;28;20383;-77
2023/01/31 10:20:57;;;;;;;20.50;4.28;;;;;;;8.65;100.00;99357.53;5072788;28;20378;-76
2023/01/31 10:23:37;;;;;;;11.15;3.72;;;;;;;8.47;100.00;99377.88;5086874;28;20087;-77
2023/01/31 10:26:08;;;;;;;16.25;3.95;;;;;;;8.71;100.00;99362.06;5071973;28;20041;-77
2023/01/31 10:28:46;;;;;;;26.27;4.07;;;;;;;8.50;100.00;99372.34;5071684;28;20410;-77
2023/01/31 10:31:23;;;;;;;24.13;3.17;;;;;;;8.69;100.00;99389.38;5074518;28;20036;-77
2023/01/31 10:33:49;;;;;;;20.25;3.60;;;;;;;8.52;100.00;99370.38;5071724;28;20048;-76
2023/01/31 10:36:26;;;;;;;10.32;2.25;;;;;;;8.39;100.00;99371.69;5071488;28;20044;-77
2023/01/31 10:39:09;;;;;;;14.88;2.67;;;;;;;8.07;100.00;99381.34;5067711;28;20091;-76
2023/01/31 10:42:10;;;;;;;15.20;2.93;;;;;;;8.21;100.00;99386.81;5069249;28;20120;-76
2023/01/31 10:44:57;;;;;;;17.30;3.13;;;;;;;8.06;100.00;99384.13;5052295;28;20047;-78
2023/01/31 10:47:36;;;;;;;17.23;3.58;;;;;;;8.29;100.00;99364.06;5059188;28;20045;-77
2023/01/31 10:50:18;;;;;;;15.98;3.55;;;;;;;8.52;100.00;99370.38;5081629;28;20449;-77
2023/01/31 10:53:15;;;;;;;23.92;3.50;;;;;;;8.44;100.00;99403.38;5067034;28;20044;-76
2023/01/31 10:55:56;;;;;;;27.17;4.93;;;;;;;8.40;100.00;99412.56;5068649;28;20044;-77
2023/01/31 10:58:22;;;;;;;17.17;4.00;;;;;;;8.52;100.00;99407.00;5069553;28;20123;-77
2023/01/31 11:00:48;;;;;;;22.15;4.38;;;;;;;8.73;100.00;99413.41;5060283;28;20119;-76
2023/01/31 11:03:15;;;;;;;25.42;4.68;;;;;;;8.55;100.00;99404.84;5061412;28;20043;-77
2023/01/31 11:05:49;;;;;;;22.45;4.53;;;;;;;8.59;100.00;99394.84;5068248;28;20123;-76
2023/01/31 11:08:39;;;;;;;28.48;4.20;;;;;;;9.00;100.00;99409.47;5051527;28;20111;-76
2023/01/31 11:11:11;;;;;;;16.25;4.35;;;;;;;8.49;100.00;99415.16;5067539;28;20097;-76
2023/01/31 11:13:37;;;;;;;23.60;4.50;;;;;;;8.51;100.00;99410.59;5072472;28;22104;-77
2023/01/31 11:16:08;;;;;;;22.25;4.35;;;;;;;8.71;100.00;99419.63;5067461;28;20043;-76
2023/01/31 11:18:48;;;;;;;19.73;4.70;;;;;;;8.74;100.00;99412.41;5067458;28;20045;-77
2023/01/31 11:21:34;;;;;;;26.13;4.00;;;;;;;8.51;100.00;99437.56;5055073;28;20424;-76
2023/01/31 11:24:06;;;;;;;26.63;3.95;;;;;;;8.48;100.00;99414.31;5063337;28;20036;-76
2023/01/31 11:26:35;;;;;;;22.95;4.70;;;;;;;8.61;100.00;99433.94;5070874;28;20513;-76
2023/01/31 11:29:06;;;;;;;23.17;4.15;;;;;;;8.90;100.00;99411.50;5070805;28;20498;-78
2023/01/31 11:31:40;;;;;;;23.23;4.28;;;;;;;8.48;100.00;99388.16;5058059;28;20110;-78
2023/01/31 11:34:21;;;;;;;22.88;3.65;;;;;;;8.61;100.00;99442.56;5053930;28;20044;-77
2023/01/31 11:36:47;;;;;;;31.58;5.70;;;;;;;8.75;100.00;99403.59;5067507;28;20040;-77
2023/01/31 11:39:37;;;;;;;22.88;3.67;;;;;;;8.99;100.00;99418.31;5052119;28;20044;-78
2023/01/31 11:42:14;;;;;;;28.30;5.30;;;;;;;8.81;100.00;99421.19;5070401;28;20043;-76
2023/01/31 11:45:04;;;;;;;30.13;5.00;;;;;;;8.77;100.00;99439.06;5072895;28;20044;-77
2023/01/31 11:47:48;;;;;;;24.23;4.25;;;;;;;8.97;100.00;99402.78;5070998;28;20684;-77
2023/01/31 11:50:31;;;;;;;32.83;4.57;;;;;;;8.81;100.00;99418.59;5053933;28;20119;-77
2023/01/31 11:53:03;;;;;;;23.45;5.18;;;;;;;8.68;100.00;99461.03;5054124;28;20062;-76
2023/01/31 11:55:37;;;;;;;23.10;4.07;;;;;;;8.74;100.00;99415.03;5069818;28;20094;-76